sensor_id;sensor_type;location;lat;lon;timestamp;pressure;altitude;pressure_sealevel;temperature;humidity
57568;BME280;43403;51.948;5.922;2023-06-26T00:00:24;101139.28;;;25.19;85.96
57568;BME280;43403;51.948;5.922;2023-06-26T00:02:50;101136.69;;;25.13;86.99
57568;BME280;43403;51.948;5.922;2023-06-26T00:05:17;101132.28;;;25.06;88.76
57568;BME280;43403;51.948;5.922;2023-06-26T00:07:43;101132.88;;;24.97;88.90
57568;BME280;43403;51.948;5.922;2023-06-26T00:10:09;101125.06;;;24.95;87.84
57568;BME280;43403;51.948;5.922;2023-06-26T00:12:36;101125.31;;;24.94;89.75
57568;BME280;43403;51.948;5.922;2023-06-26T00:15:03;101122.50;;;24.89;90.47
57568;BME280;43403;51.948;5.922;2023-06-26T00:17:29;101124.25;;;24.83;91.36
57568;BME280;43403;51.948;5.922;2023-06-26T00:19:56;101122.84;;;24.80;92.69
57568;BME280;43403;51.948;5.922;2023-06-26T00:22:22;101127.75;;;24.72;92.36
57568;BME280;43403;51.948;5.922;2023-06-26T00:24:48;101116.91;;;24.66;91.79
57568;BME280;43403;51.948;5.922;2023-06-26T00:27:15;101112.72;;;24.59;92.67
57568;BME280;43403;51.948;5.922;2023-06-26T00:29:42;101116.09;;;24.54;91.70
57568;BME280;43403;51.948;5.922;2023-06-26T00:32:08;101109.19;;;24.46;93.40
57568;BME280;43403;51.948;5.922;2023-06-26T00:34:34;101104.50;;;24.42;93.99
57568;BME280;43403;51.948;5.922;2023-06-26T00:37:01;101101.22;;;24.40;92.95
57568;BME280;43403;51.948;5.922;2023-06-26T00:39:27;101099.03;;;24.37;95.00
57568;BME280;43403;51.948;5.922;2023-06-26T00:41:54;101093.88;;;24.35;92.52
57568;BME280;43403;51.948;5.922;2023-06-26T00:44:20;101094.13;;;24.34;92.67
57568;BME280;43403;51.948;5.922;2023-06-26T00:46:47;101086.56;;;24.31;92.96
57568;BME280;43403;51.948;5.922;2023-06-26T00:49:13;101088.03;;;24.26;94.38
57568;BME280;43403;51.948;5.922;2023-06-26T00:51:40;101088.16;;;24.20;95.85
57568;BME280;43403;51.948;5.922;2023-06-26T00:54:07;101099.31;;;24.17;93.71
57568;BME280;43403;51.948;5.922;2023-06-26T00:56:34;101097.19;;;24.07;95.13
57568;BME280;43403;51.948;5.922;2023-06-26T00:59:00;101104.53;;;24.00;95.77
57568;BME280;43403;51.948;5.922;2023-06-26T01:01:27;101101.50;;;23.96;95.09
57568;BME280;43403;51.948;5.922;2023-06-26T01:03:53;101103.22;;;23.91;95.24
57568;BME280;43403;51.948;5.922;2023-06-26T01:06:22;101097.06;;;23.90;94.37
57568;BME280;43403;51.948;5.922;2023-06-26T01:08:50;101098.56;;;23.86;96.33
57568;BME280;43403;51.948;5.922;2023-06-26T01:11:18;101106.22;;;23.82;96.83
57568;BME280;43403;51.948;5.922;2023-06-26T01:13:44;101099.69;;;23.78;97.81
57568;BME280;43403;51.948;5.922;2023-06-26T01:16:11;101092.06;;;23.75;97.93
57568;BME280;43403;51.948;5.922;2023-06-26T01:18:38;101095.16;;;23.79;96.72
57568;BME280;43403;51.948;5.922;2023-06-26T01:21:08;101095.53;;;23.82;96.55
57568;BME280;43403;51.948;5.922;2023-06-26T01:28:31;101088.88;;;23.85;97.45
57568;BME280;43403;51.948;5.922;2023-06-26T01:30:58;101089.34;;;23.82;98.74
57568;BME280;43403;51.948;5.922;2023-06-26T01:33:24;101086.09;;;23.80;98.76
57568;BME280;43403;51.948;5.922;2023-06-26T01:35:51;101086.72;;;23.75;97.29
57568;BME280;43403;51.948;5.922;2023-06-26T01:38:18;101088.22;;;23.71;94.12
57568;BME280;43403;51.948;5.922;2023-06-26T01:40:45;101090.91;;;23.71;95.77
57568;BME280;43403;51.948;5.922;2023-06-26T01:46:09;101102.97;;;23.62;91.02
57568;BME280;43403;51.948;5.922;2023-06-26T01:48:50;101123.34;;;23.63;91.00
57568;BME280;43403;51.948;5.922;2023-06-26T01:51:17;101112.66;;;23.63;90.79
57568;BME280;43403;51.948;5.922;2023-06-26T01:53:45;101126.47;;;23.60;88.00
57568;BME280;43403;51.948;5.922;2023-06-26T01:56:13;101115.41;;;23.56;89.28
57568;BME280;43403;51.948;5.922;2023-06-26T01:58:41;101115.03;;;23.53;88.29
57568;BME280;43403;51.948;5.922;2023-06-26T02:01:09;101121.66;;;23.50;88.94
57568;BME280;43403;51.948;5.922;2023-06-26T02:03:35;101125.81;;;23.46;88.47
57568;BME280;43403;51.948;5.922;2023-06-26T02:06:02;101123.81;;;23.41;88.25
57568;BME280;43403;51.948;5.922;2023-06-26T02:08:28;101127.25;;;23.48;89.10
57568;BME280;43403;51.948;5.922;2023-06-26T02:10:55;101135.34;;;23.42;88.74
57568;BME280;43403;51.948;5.922;2023-06-26T02:13:21;101138.03;;;23.42;89.10
57568;BME280;43403;51.948;5.922;2023-06-26T02:15:48;101129.03;;;23.36;90.13
57568;BME280;43403;51.948;5.922;2023-06-26T02:18:14;101136.72;;;23.33;90.79
57568;BME280;43403;51.948;5.922;2023-06-26T02:20:41;101144.34;;;23.29;92.89
57568;BME280;43403;51.948;5.922;2023-06-26T02:23:10;101149.94;;;23.27;92.98
57568;BME280;43403;51.948;5.922;2023-06-26T02:25:36;101142.59;;;23.23;92.02
57568;BME280;43403;51.948;5.922;2023-06-26T02:28:03;101138.75;;;23.12;92.80
57568;BME280;43403;51.948;5.922;2023-06-26T02:30:29;101137.19;;;23.04;92.09
57568;BME280;43403;51.948;5.922;2023-06-26T02:32:56;101134.94;;;23.01;92.37
57568;BME280;43403;51.948;5.922;2023-06-26T02:35:22;101144.00;;;23.00;93.24
57568;BME280;43403;51.948;5.922;2023-06-26T02:37:48;101143.31;;;22.86;92.24
57568;BME280;43403;51.948;5.922;2023-06-26T02:40:15;101147.47;;;22.82;91.96
57568;BME280;43403;51.948;5.922;2023-06-26T02:42:41;101145.69;;;22.76;92.00
57568;BME280;43403;51.948;5.922;2023-06-26T02:45:08;101151.25;;;22.75;91.97
57568;BME280;43403;51.948;5.922;2023-06-26T02:47:34;101147.66;;;22.62;91.10
57568;BME280;43403;51.948;5.922;2023-06-26T02:50:03;101157.50;;;22.62;91.96
57568;BME280;43403;51.948;5.922;2023-06-26T02:52:30;101158.75;;;22.59;92.01
57568;BME280;43403;51.948;5.922;2023-06-26T02:54:56;101161.25;;;22.54;92.95
57568;BME280;43403;51.948;5.922;2023-06-26T02:57:23;101160.03;;;22.57;93.01
57568;BME280;43403;51.948;5.922;2023-06-26T02:59:49;101158.66;;;22.47;93.51
57568;BME280;43403;51.948;5.922;2023-06-26T03:02:15;101161.81;;;22.38;94.56
57568;BME280;43403;51.948;5.922;2023-06-26T03:04:42;101165.75;;;22.35;95.64
57568;BME280;43403;51.948;5.922;2023-06-26T03:07:09;101168.06;;;22.18;97.07
57568;BME280;43403;51.948;5.922;2023-06-26T03:09:36;101171.19;;;22.15;97.02
57568;BME280;43403;51.948;5.922;2023-06-26T03:12:02;101165.47;;;22.05;99.22
57568;BME280;43403;51.948;5.922;2023-06-26T03:14:29;101171.03;;;22.03;100.00
57568;BME280;43403;51.948;5.922;2023-06-26T03:16:58;101171.66;;;22.05;98.57
57568;BME280;43403;51.948;5.922;2023-06-26T03:19:25;101175.38;;;21.98;100.00
57568;BME280;43403;51.948;5.922;2023-06-26T03:21:52;101176.84;;;21.94;100.00
57568;BME280;43403;51.948;5.922;2023-06-26T03:24:18;101175.19;;;21.92;100.00
57568;BME280;43403;51.948;5.922;2023-06-26T03:26:45;101172.91;;;21.96;100.00
57568;BME280;43403;51.948;5.922;2023-06-26T03:29:11;101184.47;;;21.90;100.00
57568;BME280;43403;51.948;5.922;2023-06-26T03:31:37;101184.47;;;21.83;100.00
57568;BME280;43403;51.948;5.922;2023-06-26T03:34:04;101183.88;;;21.81;100.00
57568;BME280;43403;51.948;5.922;2023-06-26T03:36:30;101187.19;;;21.77;100.00
57568;BME280;43403;51.948;5.922;2023-06-26T03:38:57;101190.28;;;21.67;100.00
57568;BME280;43403;51.948;5.922;2023-06-26T03:41:23;101177.97;;;21.66;100.00
57568;BME280;43403;51.948;5.922;2023-06-26T03:43:50;101183.53;;;21.64;100.00
57568;BME280;43403;51.948;5.922;2023-06-26T03:46:16;101178.81;;;21.60;100.00
57568;BME280;43403;51.948;5.922;2023-06-26T03:48:43;101177.81;;;21.61;100.00
57568;BME280;43403;51.948;5.922;2023-06-26T03:51:09;101180.25;;;21.62;100.00
57568;BME280;43403;51.948;5.922;2023-06-26T03:53:35;101178.41;;;21.63;100.00
57568;BME280;43403;51.948;5.922;2023-06-26T03:56:02;101185.19;;;21.52;100.00
57568;BME280;43403;51.948;5.922;2023-06-26T03:58:28;101192.59;;;21.57;100.00
57568;BME280;43403;51.948;5.922;2023-06-26T04:00:55;101186.88;;;21.46;100.00
57568;BME280;43403;51.948;5.922;2023-06-26T04:03:22;101176.41;;;21.45;100.00
57568;BME280;43403;51.948;5.922;2023-06-26T04:05:48;101178.03;;;21.39;100.00
57568;BME280;43403;51.948;5.922;2023-06-26T04:08:15;101189.97;;;21.37;100.00
57568;BME280;43403;51.948;5.922;2023-06-26T04:10:41;101189.13;;;21.36;100.00
57568;BME280;43403;51.948;5.922;2023-06-26T04:13:08;101200.63;;;21.37;100.00
57568;BME280;43403;51.948;5.922;2023-06-26T04:15:34;101205.56;;;21.33;100.00
57568;BME280;43403;51.948;5.922;2023-06-26T04:18:01;101203.09;;;21.31;100.00
57568;BME280;43403;51.948;5.922;2023-06-26T04:20:28;101205.34;;;21.28;100.00
57568;BME280;43403;51.948;5.922;2023-06-26T04:22:54;101218.47;;;21.36;100.00
57568;BME280;43403;51.948;5.922;2023-06-26T04:25:21;101218.28;;;21.31;100.00
57568;BME280;43403;51.948;5.922;2023-06-26T04:27:47;101224.66;;;21.23;100.00
57568;BME280;43403;51.948;5.922;2023-06-26T04:30:14;101227.72;;;21.20;100.00
57568;BME280;43403;51.948;5.922;2023-06-26T04:32:40;101222.59;;;21.19;100.00
57568;BME280;43403;51.948;5.922;2023-06-26T04:35:07;101238.00;;;21.17;100.00
57568;BME280;43403;51.948;5.922;2023-06-26T04:37:33;101236.56;;;21.07;100.00
57568;BME280;43403;51.948;5.922;2023-06-26T04:40:00;101231.25;;;21.07;100.00
57568;BME280;43403;51.948;5.922;2023-06-26T04:42:26;101231.63;;;21.11;100.00
57568;BME280;43403;51.948;5.922;2023-06-26T04:44:52;101226.53;;;21.09;100.00
57568;BME280;43403;51.948;5.922;2023-06-26T04:47:19;101230.63;;;21.05;100.00
57568;BME280;43403;51.948;5.922;2023-06-26T04:49:45;101236.16;;;21.10;100.00
57568;BME280;43403;51.948;5.922;2023-06-26T04:52:13;101234.91;;;21.20;100.00
57568;BME280;43403;51.948;5.922;2023-06-26T04:54:42;101242.31;;;21.04;100.00
57568;BME280;43403;51.948;5.922;2023-06-26T04:57:08;101244.78;;;21.06;100.00
57568;BME280;43403;51.948;5.922;2023-06-26T04:59:35;101248.25;;;21.06;100.00
57568;BME280;43403;51.948;5.922;2023-06-26T05:02:02;101253.19;;;21.03;100.00
57568;BME280;43403;51.948;5.922;2023-06-26T05:04:29;101250.09;;;20.99;100.00
57568;BME280;43403;51.948;5.922;2023-06-26T05:06:55;101251.97;;;21.05;100.00
57568;BME280;43403;51.948;5.922;2023-06-26T05:09:22;101255.84;;;20.96;100.00
57568;BME280;43403;51.948;5.922;2023-06-26T05:11:48;101245.41;;;21.01;100.00
57568;BME280;43403;51.948;5.922;2023-06-26T05:14:15;101252.56;;;21.01;100.00
57568;BME280;43403;51.948;5.922;2023-06-26T05:16:41;101254.84;;;21.04;100.00
57568;BME280;43403;51.948;5.922;2023-06-26T05:19:08;101264.06;;;21.08;100.00
57568;BME280;43403;51.948;5.922;2023-06-26T05:21:34;101253.81;;;21.11;100.00
57568;BME280;43403;51.948;5.922;2023-06-26T05:24:02;101254.84;;;21.17;100.00
57568;BME280;43403;51.948;5.922;2023-06-26T05:26:29;101261.81;;;21.25;100.00
57568;BME280;43403;51.948;5.922;2023-06-26T05:28:55;101265.69;;;21.22;100.00
57568;BME280;43403;51.948;5.922;2023-06-26T05:31:22;101278.00;;;21.23;100.00
57568;BME280;43403;51.948;5.922;2023-06-26T05:33:48;101281.09;;;21.20;100.00
57568;BME280;43403;51.948;5.922;2023-06-26T05:36:16;101283.75;;;21.33;100.00
57568;BME280;43403;51.948;5.922;2023-06-26T05:38:42;101297.91;;;21.41;100.00
57568;BME280;43403;51.948;5.922;2023-06-26T05:41:09;101296.88;;;21.35;100.00
57568;BME280;43403;51.948;5.922;2023-06-26T05:43:36;101299.53;;;21.42;100.00
57568;BME280;43403;51.948;5.922;2023-06-26T05:46:02;101303.66;;;21.38;100.00
57568;BME280;43403;51.948;5.922;2023-06-26T05:48:29;101303.06;;;21.29;100.00
57568;BME280;43403;51.948;5.922;2023-06-26T05:50:55;101311.06;;;21.29;100.00
57568;BME280;43403;51.948;5.922;2023-06-26T05:53:22;101321.31;;;21.32;100.00
57568;BME280;43403;51.948;5.922;2023-06-26T05:55:49;101312.28;;;21.26;100.00
57568;BME280;43403;51.948;5.922;2023-06-26T05:58:15;101327.25;;;21.21;100.00
57568;BME280;43403;51.948;5.922;2023-06-26T06:00:42;101325.81;;;21.18;100.00
57568;BME280;43403;51.948;5.922;2023-06-26T06:03:09;101330.94;;;21.26;100.00
57568;BME280;43403;51.948;5.922;2023-06-26T06:05:36;101344.72;;;21.37;100.00
57568;BME280;43403;51.948;5.922;2023-06-26T06:08:03;101343.06;;;21.22;100.00
57568;BME280;43403;51.948;5.922;2023-06-26T06:10:30;101332.81;;;21.26;100.00
57568;BME280;43403;51.948;5.922;2023-06-26T06:12:56;101343.88;;;21.29;100.00
57568;BME280;43403;51.948;5.922;2023-06-26T06:15:23;101340.19;;;21.30;100.00
57568;BME280;43403;51.948;5.922;2023-06-26T06:17:49;101351.47;;;21.32;100.00
57568;BME280;43403;51.948;5.922;2023-06-26T06:20:16;101354.97;;;21.40;100.00
57568;BME280;43403;51.948;5.922;2023-06-26T06:22:43;101361.78;;;21.49;100.00
57568;BME280;43403;51.948;5.922;2023-06-26T06:25:09;101361.59;;;21.50;99.43
57568;BME280;43403;51.948;5.922;2023-06-26T06:27:36;101367.94;;;21.49;96.02
57568;BME280;43403;51.948;5.922;2023-06-26T06:30:02;101376.78;;;21.57;97.60
57568;BME280;43403;51.948;5.922;2023-06-26T06:32:31;101371.44;;;21.57;94.99
57568;BME280;43403;51.948;5.922;2023-06-26T06:34:57;101384.16;;;21.68;93.21
57568;BME280;43403;51.948;5.922;2023-06-26T06:37:24;101382.53;;;21.60;87.18
57568;BME280;43403;51.948;5.922;2023-06-26T06:39:50;101386.84;;;21.68;88.18
57568;BME280;43403;51.948;5.922;2023-06-26T06:42:16;101391.97;;;21.76;87.42
57568;BME280;43403;51.948;5.922;2023-06-26T06:44:43;101393.41;;;21.72;85.08
57568;BME280;43403;51.948;5.922;2023-06-26T06:47:09;101386.38;;;21.78;87.19
57568;BME280;43403;51.948;5.922;2023-06-26T06:49:36;101378.19;;;21.86;87.91
57568;BME280;43403;51.948;5.922;2023-06-26T06:52:02;101387.41;;;21.97;87.81
57568;BME280;43403;51.948;5.922;2023-06-26T06:54:29;101397.84;;;22.05;86.62
57568;BME280;43403;51.948;5.922;2023-06-26T06:56:55;101405.50;;;22.01;81.73
57568;BME280;43403;51.948;5.922;2023-06-26T06:59:22;101409.16;;;22.07;84.26
57568;BME280;43403;51.948;5.922;2023-06-26T07:01:48;101414.09;;;22.10;84.16
57568;BME280;43403;51.948;5.922;2023-06-26T07:04:14;101416.53;;;22.18;82.42
57568;BME280;43403;51.948;5.922;2023-06-26T07:06:41;101421.47;;;22.15;82.70
57568;BME280;43403;51.948;5.922;2023-06-26T07:09:07;101424.16;;;22.15;82.30
57568;BME280;43403;51.948;5.922;2023-06-26T07:11:34;101420.06;;;22.12;82.41
57568;BME280;43403;51.948;5.922;2023-06-26T07:14:00;101423.97;;;22.09;82.33
57568;BME280;43403;51.948;5.922;2023-06-26T07:16:26;101431.78;;;22.11;83.57
57568;BME280;43403;51.948;5.922;2023-06-26T07:18:53;101431.97;;;22.16;82.21
57568;BME280;43403;51.948;5.922;2023-06-26T07:21:21;101441.22;;;22.27;81.36
57568;BME280;43403;51.948;5.922;2023-06-26T07:23:51;101436.91;;;22.33;78.94
57568;BME280;43403;51.948;5.922;2023-06-26T07:26:18;101438.06;;;22.50;82.01
57568;BME280;43403;51.948;5.922;2023-06-26T07:28:54;101442.59;;;22.49;78.54
57568;BME280;43403;51.948;5.922;2023-06-26T07:31:22;101455.13;;;22.56;80.04
57568;BME280;43403;51.948;5.922;2023-06-26T07:33:49;101457.38;;;22.52;80.59
57568;BME280;43403;51.948;5.922;2023-06-26T07:36:15;101455.56;;;22.53;80.78
57568;BME280;43403;51.948;5.922;2023-06-26T07:38:42;101453.25;;;22.63;79.73
57568;BME280;43403;51.948;5.922;2023-06-26T07:41:08;101465.16;;;22.67;79.59
57568;BME280;43403;51.948;5.922;2023-06-26T07:43:34;101467.59;;;22.82;82.10
57568;BME280;43403;51.948;5.922;2023-06-26T07:46:01;101471.69;;;22.84;78.60
57568;BME280;43403;51.948;5.922;2023-06-26T07:48:28;101458.72;;;22.88;80.32
57568;BME280;43403;51.948;5.922;2023-06-26T07:50:54;101455.28;;;22.74;78.56
57568;BME280;43403;51.948;5.922;2023-06-26T07:53:21;101459.56;;;22.75;82.13
57568;BME280;43403;51.948;5.922;2023-06-26T07:55:48;101463.47;;;22.86;82.69
57568;BME280;43403;51.948;5.922;2023-06-26T07:58:14;101466.38;;;22.78;81.18
57568;BME280;43403;51.948;5.922;2023-06-26T08:00:41;101468.84;;;22.73;80.42
57568;BME280;43403;51.948;5.922;2023-06-26T08:03:08;101473.34;;;22.79;81.63
57568;BME280;43403;51.948;5.922;2023-06-26T08:05:46;101485.25;;;22.89;83.32
57568;BME280;43403;51.948;5.922;2023-06-26T08:08:13;101492.63;;;22.94;80.36
57568;BME280;43403;51.948;5.922;2023-06-26T08:10:39;101491.41;;;22.90;79.99
57568;BME280;43403;51.948;5.922;2023-06-26T08:13:06;101482.78;;;22.88;79.68
57568;BME280;43403;51.948;5.922;2023-06-26T08:15:33;101498.66;;;22.76;77.83
57568;BME280;43403;51.948;5.922;2023-06-26T08:17:59;101494.53;;;22.80;79.96
57568;BME280;43403;51.948;5.922;2023-06-26T08:20:25;101488.38;;;22.73;80.92
57568;BME280;43403;51.948;5.922;2023-06-26T08:22:52;101495.63;;;22.66;80.65
57568;BME280;43403;51.948;5.922;2023-06-26T08:25:20;101477.47;;;22.75;80.87
57568;BME280;43403;51.948;5.922;2023-06-26T08:27:47;101485.91;;;22.71;80.44
57568;BME280;43403;51.948;5.922;2023-06-26T08:30:14;101487.13;;;22.82;80.82
57568;BME280;43403;51.948;5.922;2023-06-26T08:32:40;101488.06;;;23.08;81.58
57568;BME280;43403;51.948;5.922;2023-06-26T08:35:07;101493.91;;;23.37;78.47
57568;BME280;43403;51.948;5.922;2023-06-26T08:37:33;101501.66;;;23.13;79.12
57568;BME280;43403;51.948;5.922;2023-06-26T08:40:00;101503.47;;;23.19;80.68
57568;BME280;43403;51.948;5.922;2023-06-26T08:42:26;101508.97;;;23.24;78.68
57568;BME280;43403;51.948;5.922;2023-06-26T08:44:53;101505.81;;;23.41;77.86
57568;BME280;43403;51.948;5.922;2023-06-26T08:47:27;101503.09;;;23.79;76.47
57568;BME280;43403;51.948;5.922;2023-06-26T08:49:56;101522.31;;;24.01;70.08
57568;BME280;43403;51.948;5.922;2023-06-26T08:52:30;101518.06;;;24.37;68.63
57568;BME280;43403;51.948;5.922;2023-06-26T08:54:59;101519.34;;;24.35;66.38
57568;BME280;43403;51.948;5.922;2023-06-26T08:57:25;101522.06;;;24.53;69.41
57568;BME280;43403;51.948;5.922;2023-06-26T08:59:52;101522.44;;;24.57;68.51
57568;BME280;43403;51.948;5.922;2023-06-26T09:02:22;101527.03;;;25.05;70.55
57568;BME280;43403;51.948;5.922;2023-06-26T09:04:49;101527.31;;;25.34;66.10
57568;BME280;43403;51.948;5.922;2023-06-26T09:07:16;101531.38;;;25.67;62.09
57568;BME280;43403;51.948;5.922;2023-06-26T09:09:43;101534.91;;;25.79;62.03
57568;BME280;43403;51.948;5.922;2023-06-26T09:12:09;101530.97;;;25.93;60.94
57568;BME280;43403;51.948;5.922;2023-06-26T09:14:36;101543.75;;;26.21;58.66
57568;BME280;43403;51.948;5.922;2023-06-26T09:17:03;101538.53;;;25.73;54.30
57568;BME280;43403;51.948;5.922;2023-06-26T09:19:31;101544.16;;;25.83;55.11
57568;BME280;43403;51.948;5.922;2023-06-26T09:22:00;101545.38;;;25.99;55.03
57568;BME280;43403;51.948;5.922;2023-06-26T09:24:26;101556.03;;;26.17;56.33
57568;BME280;43403;51.948;5.922;2023-06-26T09:26:53;101549.50;;;26.13;50.15
57568;BME280;43403;51.948;5.922;2023-06-26T09:29:19;101554.22;;;25.88;52.03
57568;BME280;43403;51.948;5.922;2023-06-26T09:31:46;101559.91;;;25.79;52.66
57568;BME280;43403;51.948;5.922;2023-06-26T09:34:12;101569.84;;;26.33;54.73
57568;BME280;43403;51.948;5.922;2023-06-26T09:36:39;101563.28;;;26.17;54.04
57568;BME280;43403;51.948;5.922;2023-06-26T09:39:09;101567.66;;;25.88;55.14
57568;BME280;43403;51.948;5.922;2023-06-26T09:41:41;101569.25;;;26.07;55.05
57568;BME280;43403;51.948;5.922;2023-06-26T09:44:09;101566.56;;;26.31;53.80
57568;BME280;43403;51.948;5.922;2023-06-26T09:46:37;101558.00;;;26.10;51.54
57568;BME280;43403;51.948;5.922;2023-06-26T09:49:04;101579.03;;;26.01;52.68
57568;BME280;43403;51.948;5.922;2023-06-26T09:51:32;101587.34;;;26.12;53.22
57568;BME280;43403;51.948;5.922;2023-06-26T09:54:02;101572.03;;;26.24;53.94
57568;BME280;43403;51.948;5.922;2023-06-26T09:56:29;101573.44;;;26.15;51.19
57568;BME280;43403;51.948;5.922;2023-06-26T09:58:56;101579.63;;;26.03;50.73
57568;BME280;43403;51.948;5.922;2023-06-26T10:01:26;101584.81;;;25.87;50.92
57568;BME280;43403;51.948;5.922;2023-06-26T10:03:53;101581.31;;;25.56;51.03
57568;BME280;43403;51.948;5.922;2023-06-26T10:06:22;101595.03;;;25.96;51.89
57568;BME280;43403;51.948;5.922;2023-06-26T10:08:50;101583.28;;;26.33;52.32
57568;BME280;43403;51.948;5.922;2023-06-26T10:11:19;101590.66;;;25.83;50.96
57568;BME280;43403;51.948;5.922;2023-06-26T10:13:47;101605.38;;;26.11;51.35
57568;BME280;43403;51.948;5.922;2023-06-26T10:16:20;101592.72;;;26.00;50.41
57568;BME280;43403;51.948;5.922;2023-06-26T10:18:48;101594.84;;;26.21;50.16
57568;BME280;43403;51.948;5.922;2023-06-26T10:21:16;101611.44;;;26.18;51.76
57568;BME280;43403;51.948;5.922;2023-06-26T10:23:43;101607.38;;;26.51;50.96
57568;BME280;43403;51.948;5.922;2023-06-26T10:26:10;101608.22;;;26.63;49.28
57568;BME280;43403;51.948;5.922;2023-06-26T10:28:38;101604.56;;;26.70;49.95
57568;BME280;43403;51.948;5.922;2023-06-26T10:31:04;101603.09;;;26.74;47.57
57568;BME280;43403;51.948;5.922;2023-06-26T10:33:33;101612.66;;;26.93;47.53
57568;BME280;43403;51.948;5.922;2023-06-26T10:36:14;101610.66;;;26.77;46.87
57568;BME280;43403;51.948;5.922;2023-06-26T10:41:19;101627.03;;;26.63;48.29
57568;BME280;43403;51.948;5.922;2023-06-26T10:43:45;101625.63;;;26.49;48.70
57568;BME280;43403;51.948;5.922;2023-06-26T10:46:14;101622.38;;;26.71;47.41
57568;BME280;43403;51.948;5.922;2023-06-26T10:48:57;101616.19;;;27.22;48.22
57568;BME280;43403;51.948;5.922;2023-06-26T10:51:27;101607.53;;;27.20;46.53
57568;BME280;43403;51.948;5.922;2023-06-26T10:53:57;101603.28;;;26.96;45.76
57568;BME280;43403;51.948;5.922;2023-06-26T10:56:40;101613.31;;;27.00;46.10
57568;BME280;43403;51.948;5.922;2023-06-26T10:59:17;101623.47;;;27.22;45.60
57568;BME280;43403;51.948;5.922;2023-06-26T11:01:44;101635.66;;;27.25;43.31
57568;BME280;43403;51.948;5.922;2023-06-26T11:04:13;101625.28;;;26.69;44.01
57568;BME280;43403;51.948;5.922;2023-06-26T11:06:41;101632.97;;;26.42;44.03
57568;BME280;43403;51.948;5.922;2023-06-26T11:09:08;101638.94;;;26.32;45.59
57568;BME280;43403;51.948;5.922;2023-06-26T11:14:20;101638.88;;;26.09;43.35
57568;BME280;43403;51.948;5.922;2023-06-26T11:16:47;101633.81;;;26.42;46.46
57568;BME280;43403;51.948;5.922;2023-06-26T11:20:06;101631.59;;;26.51;45.99
57568;BME280;43403;51.948;5.922;2023-06-26T11:22:37;101656.59;;;26.52;47.03
57568;BME280;43403;51.948;5.922;2023-06-26T11:25:04;101654.25;;;26.43;46.58
57568;BME280;43403;51.948;5.922;2023-06-26T11:30:04;101651.91;;;26.35;45.92
57568;BME280;43403;51.948;5.922;2023-06-26T11:32:31;101648.66;;;26.57;46.21
57568;BME280;43403;51.948;5.922;2023-06-26T11:34:59;101654.09;;;26.80;46.00
57568;BME280;43403;51.948;5.922;2023-06-26T11:37:26;101662.16;;;26.92;45.69
57568;BME280;43403;51.948;5.922;2023-06-26T11:39:52;101679.69;;;26.71;44.71
57568;BME280;43403;51.948;5.922;2023-06-26T11:42:19;101676.06;;;26.66;46.02
57568;BME280;43403;51.948;5.922;2023-06-26T11:44:46;101677.44;;;26.56;44.12
57568;BME280;43403;51.948;5.922;2023-06-26T11:47:16;101687.97;;;26.58;44.23
57568;BME280;43403;51.948;5.922;2023-06-26T11:49:44;101686.84;;;26.77;44.68
57568;BME280;43403;51.948;5.922;2023-06-26T11:52:11;101690.00;;;26.62;45.38
57568;BME280;43403;51.948;5.922;2023-06-26T11:54:38;101695.81;;;25.87;45.65
57568;BME280;43403;51.948;5.922;2023-06-26T11:57:05;101703.44;;;25.90;45.57
57568;BME280;43403;51.948;5.922;2023-06-26T11:59:35;101701.47;;;26.28;45.40
57568;BME280;43403;51.948;5.922;2023-06-26T12:02:04;101697.59;;;26.77;46.21
57568;BME280;43403;51.948;5.922;2023-06-26T12:04:31;101705.22;;;26.80;45.46
57568;BME280;43403;51.948;5.922;2023-06-26T12:06:57;101708.25;;;27.08;45.63
57568;BME280;43403;51.948;5.922;2023-06-26T12:09:24;101708.13;;;26.79;45.63
57568;BME280;43403;51.948;5.922;2023-06-26T12:11:52;101708.97;;;27.15;46.53
57568;BME280;43403;51.948;5.922;2023-06-26T12:14:19;101716.69;;;26.76;45.82
57568;BME280;43403;51.948;5.922;2023-06-26T12:16:46;101723.31;;;26.61;43.51
57568;BME280;43403;51.948;5.922;2023-06-26T12:19:13;101710.97;;;26.42;43.19
57568;BME280;43403;51.948;5.922;2023-06-26T12:24:07;101718.91;;;26.79;45.16
57568;BME280;43403;51.948;5.922;2023-06-26T12:26:34;101712.72;;;27.02;42.30
57568;BME280;43403;51.948;5.922;2023-06-26T12:29:20;101719.25;;;26.94;42.35
57568;BME280;43403;51.948;5.922;2023-06-26T12:31:51;101720.78;;;27.14;42.87
57568;BME280;43403;51.948;5.922;2023-06-26T12:34:18;101717.28;;;26.78;42.62
57568;BME280;43403;51.948;5.922;2023-06-26T12:36:46;101738.47;;;26.98;43.04
57568;BME280;43403;51.948;5.922;2023-06-26T12:39:18;101720.19;;;27.23;43.08
57568;BME280;43403;51.948;5.922;2023-06-26T12:41:49;101730.38;;;27.45;42.39
57568;BME280;43403;51.948;5.922;2023-06-26T12:44:16;101727.22;;;27.36;41.60
57568;BME280;43403;51.948;5.922;2023-06-26T12:46:42;101723.06;;;27.57;41.79
57568;BME280;43403;51.948;5.922;2023-06-26T12:49:09;101716.91;;;27.45;41.99
57568;BME280;43403;51.948;5.922;2023-06-26T12:51:56;101722.06;;;27.23;42.33
57568;BME280;43403;51.948;5.922;2023-06-26T12:54:22;101701.53;;;27.46;41.41
57568;BME280;43403;51.948;5.922;2023-06-26T12:56:49;101715.00;;;27.86;40.87
57568;BME280;43403;51.948;5.922;2023-06-26T12:59:15;101713.56;;;28.07;40.25
57568;BME280;43403;51.948;5.922;2023-06-26T13:01:41;101713.16;;;28.32;40.81
57568;BME280;43403;51.948;5.922;2023-06-26T13:04:08;101724.53;;;28.34;41.33
57568;BME280;43403;51.948;5.922;2023-06-26T13:06:35;101733.09;;;28.60;41.48